sensor_id;sensor_type;location;lat;lon;timestamp;P1;durP1;ratioP1;P2;durP2;ratioP2
1220;SDS011;600;48.044;7.878;2022-12-18T00:00:39;34.83;;;18.67;;
1220;SDS011;600;48.044;7.878;2022-12-18T00:03:06;32.67;;;19.50;;
1220;SDS011;600;48.044;7.878;2022-12-18T00:05:33;37.33;;;20.33;;
1220;SDS011;600;48.044;7.878;2022-12-18T00:07:59;32.97;;;17.88;;
1220;SDS011;600;48.044;7.878;2022-12-18T00:10:28;37.65;;;21.60;;
1220;SDS011;600;48.044;7.878;2022-12-18T00:12:55;37.10;;;20.15;;
1220;SDS011;600;48.044;7.878;2022-12-18T00:15:22;36.70;;;19.92;;
1220;SDS011;600;48.044;7.878;2022-12-18T00:17:49;32.78;;;19.10;;
1220;SDS011;600;48.044;7.878;2022-12-18T00:20:15;33.80;;;19.33;;
1220;SDS011;600;48.044;7.878;2022-12-18T00:22:46;34.97;;;20.27;;
1220;SDS011;600;48.044;7.878;2022-12-18T00:25:13;36.00;;;20.20;;
1220;SDS011;600;48.044;7.878;2022-12-18T00:27:41;33.75;;;19.65;;
1220;SDS011;600;48.044;7.878;2022-12-18T00:30:08;33.28;;;19.58;;
1220;SDS011;600;48.044;7.878;2022-12-18T00:32:36;33.20;;;19.70;;
1220;SDS011;600;48.044;7.878;2022-12-18T00:35:03;36.72;;;20.00;;
1220;SDS011;600;48.044;7.878;2022-12-18T00:37:30;34.85;;;18.35;;
1220;SDS011;600;48.044;7.878;2022-12-18T00:39:59;38.45;;;22.30;;
1220;SDS011;600;48.044;7.878;2022-12-18T00:42:25;35.30;;;21.17;;
1220;SDS011;600;48.044;7.878;2022-12-18T00:45:11;33.80;;;19.55;;
1220;SDS011;600;48.044;7.878;2022-12-18T00:47:37;40.00;;;20.20;;
1220;SDS011;600;48.044;7.878;2022-12-18T00:50:05;36.33;;;20.27;;
1220;SDS011;600;48.044;7.878;2022-12-18T00:52:32;34.63;;;19.45;;
1220;SDS011;600;48.044;7.878;2022-12-18T00:54:59;43.63;;;21.88;;
1220;SDS011;600;48.044;7.878;2022-12-18T00:57:25;34.20;;;19.67;;
1220;SDS011;600;48.044;7.878;2022-12-18T00:59:52;32.55;;;17.08;;
1220;SDS011;600;48.044;7.878;2022-12-18T01:02:20;33.03;;;19.00;;
1220;SDS011;600;48.044;7.878;2022-12-18T01:04:47;34.15;;;19.90;;
1220;SDS011;600;48.044;7.878;2022-12-18T01:07:14;32.95;;;18.85;;
1220;SDS011;600;48.044;7.878;2022-12-18T01:09:40;34.13;;;18.95;;
1220;SDS011;600;48.044;7.878;2022-12-18T01:12:07;31.70;;;19.10;;
1220;SDS011;600;48.044;7.878;2022-12-18T01:14:34;33.15;;;20.17;;
1220;SDS011;600;48.044;7.878;2022-12-18T01:17:01;36.33;;;19.48;;
1220;SDS011;600;48.044;7.878;2022-12-18T01:19:30;35.83;;;18.92;;
1220;SDS011;600;48.044;7.878;2022-12-18T01:21:57;33.63;;;19.85;;
1220;SDS011;600;48.044;7.878;2022-12-18T01:24:23;35.00;;;18.13;;
1220;SDS011;600;48.044;7.878;2022-12-18T01:26:50;31.52;;;18.02;;
1220;SDS011;600;48.044;7.878;2022-12-18T01:29:17;31.77;;;17.42;;
1220;SDS011;600;48.044;7.878;2022-12-18T01:31:44;32.05;;;18.38;;
1220;SDS011;600;48.044;7.878;2022-12-18T01:34:11;43.72;;;19.75;;
1220;SDS011;600;48.044;7.878;2022-12-18T01:36:39;29.25;;;17.90;;
1220;SDS011;600;48.044;7.878;2022-12-18T01:39:06;31.90;;;17.88;;
1220;SDS011;600;48.044;7.878;2022-12-18T01:41:36;34.15;;;19.27;;
1220;SDS011;600;48.044;7.878;2022-12-18T01:47:21;34.80;;;19.38;;
1220;SDS011;600;48.044;7.878;2022-12-18T01:49:51;35.55;;;18.63;;
1220;SDS011;600;48.044;7.878;2022-12-18T01:52:20;32.83;;;18.38;;
1220;SDS011;600;48.044;7.878;2022-12-18T01:54:48;34.38;;;18.52;;
1220;SDS011;600;48.044;7.878;2022-12-18T01:57:16;33.85;;;20.92;;
1220;SDS011;600;48.044;7.878;2022-12-18T01:59:44;30.63;;;18.15;;
1220;SDS011;600;48.044;7.878;2022-12-18T02:02:13;35.15;;;19.05;;
1220;SDS011;600;48.044;7.878;2022-12-18T02:04:41;31.42;;;18.65;;
1220;SDS011;600;48.044;7.878;2022-12-18T02:07:10;39.42;;;19.17;;
1220;SDS011;600;48.044;7.878;2022-12-18T02:09:44;35.33;;;20.25;;
1220;SDS011;600;48.044;7.878;2022-12-18T02:12:16;34.90;;;19.88;;
1220;SDS011;600;48.044;7.878;2022-12-18T02:14:48;33.67;;;19.80;;
1220;SDS011;600;48.044;7.878;2022-12-18T02:17:21;41.78;;;19.77;;
1220;SDS011;600;48.044;7.878;2022-12-18T02:19:54;36.05;;;19.90;;
1220;SDS011;600;48.044;7.878;2022-12-18T02:22:34;38.10;;;20.42;;
1220;SDS011;600;48.044;7.878;2022-12-18T02:25:11;45.53;;;23.10;;
1220;SDS011;600;48.044;7.878;2022-12-18T02:27:48;45.67;;;23.90;;
1220;SDS011;600;48.044;7.878;2022-12-18T02:30:16;43.97;;;21.45;;
1220;SDS011;600;48.044;7.878;2022-12-18T02:32:45;40.05;;;20.90;;
1220;SDS011;600;48.044;7.878;2022-12-18T02:35:17;41.33;;;22.73;;
1220;SDS011;600;48.044;7.878;2022-12-18T02:37:47;41.17;;;21.70;;
1220;SDS011;600;48.044;7.878;2022-12-18T02:40:15;39.50;;;21.20;;
1220;SDS011;600;48.044;7.878;2022-12-18T02:42:45;41.60;;;21.33;;
1220;SDS011;600;48.044;7.878;2022-12-18T02:45:13;38.95;;;22.15;;
1220;SDS011;600;48.044;7.878;2022-12-18T02:47:40;37.65;;;19.63;;
1220;SDS011;600;48.044;7.878;2022-12-18T02:50:11;37.67;;;20.35;;
1220;SDS011;600;48.044;7.878;2022-12-18T02:52:46;37.83;;;19.23;;
1220;SDS011;600;48.044;7.878;2022-12-18T02:55:25;36.38;;;20.00;;
1220;SDS011;600;48.044;7.878;2022-12-18T02:58:03;38.65;;;20.35;;
1220;SDS011;600;48.044;7.878;2022-12-18T03:00:39;38.70;;;22.17;;
1220;SDS011;600;48.044;7.878;2022-12-18T03:03:10;35.10;;;20.13;;
1220;SDS011;600;48.044;7.878;2022-12-18T03:05:43;37.17;;;22.05;;
1220;SDS011;600;48.044;7.878;2022-12-18T03:08:17;28.63;;;18.00;;
1220;SDS011;600;48.044;7.878;2022-12-18T03:10:49;40.00;;;20.30;;
1220;SDS011;600;48.044;7.878;2022-12-18T03:13:23;37.13;;;20.55;;
1220;SDS011;600;48.044;7.878;2022-12-18T03:16:00;38.95;;;22.65;;
1220;SDS011;600;48.044;7.878;2022-12-18T03:21:53;37.88;;;22.05;;
1220;SDS011;600;48.044;7.878;2022-12-18T03:24:22;37.13;;;20.60;;
1220;SDS011;600;48.044;7.878;2022-12-18T03:26:52;41.15;;;21.60;;
1220;SDS011;600;48.044;7.878;2022-12-18T03:29:27;37.50;;;19.27;;
1220;SDS011;600;48.044;7.878;2022-12-18T03:32:02;37.08;;;20.90;;
1220;SDS011;600;48.044;7.878;2022-12-18T03:34:34;43.40;;;22.15;;
1220;SDS011;600;48.044;7.878;2022-12-18T03:37:04;35.55;;;19.83;;
1220;SDS011;600;48.044;7.878;2022-12-18T03:39:32;40.38;;;19.85;;
1220;SDS011;600;48.044;7.878;2022-12-18T03:42:03;36.03;;;19.75;;
1220;SDS011;600;48.044;7.878;2022-12-18T03:44:35;34.85;;;21.23;;
1220;SDS011;600;48.044;7.878;2022-12-18T03:47:09;34.80;;;19.88;;
1220;SDS011;600;48.044;7.878;2022-12-18T03:49:43;35.13;;;19.38;;
1220;SDS011;600;48.044;7.878;2022-12-18T03:52:17;42.22;;;20.50;;
1220;SDS011;600;48.044;7.878;2022-12-18T03:54:47;33.97;;;19.38;;
1220;SDS011;600;48.044;7.878;2022-12-18T03:57:16;34.97;;;20.10;;
1220;SDS011;600;48.044;7.878;2022-12-18T03:59:45;33.95;;;20.75;;
1220;SDS011;600;48.044;7.878;2022-12-18T04:02:16;30.52;;;19.27;;
1220;SDS011;600;48.044;7.878;2022-12-18T04:04:44;36.88;;;19.35;;
1220;SDS011;600;48.044;7.878;2022-12-18T04:07:12;33.38;;;19.10;;
1220;SDS011;600;48.044;7.878;2022-12-18T04:09:40;34.35;;;19.58;;
1220;SDS011;600;48.044;7.878;2022-12-18T04:12:09;32.78;;;20.15;;
1220;SDS011;600;48.044;7.878;2022-12-18T04:14:36;35.25;;;19.40;;
1220;SDS011;600;48.044;7.878;2022-12-18T04:17:03;28.27;;;18.17;;
1220;SDS011;600;48.044;7.878;2022-12-18T04:19:31;31.10;;;18.98;;
1220;SDS011;600;48.044;7.878;2022-12-18T04:21:58;32.95;;;18.83;;
1220;SDS011;600;48.044;7.878;2022-12-18T04:24:24;32.78;;;19.10;;
1220;SDS011;600;48.044;7.878;2022-12-18T04:26:51;34.13;;;19.42;;
1220;SDS011;600;48.044;7.878;2022-12-18T04:29:18;31.38;;;18.58;;
1220;SDS011;600;48.044;7.878;2022-12-18T04:31:45;31.60;;;19.13;;
1220;SDS011;600;48.044;7.878;2022-12-18T04:34:11;34.20;;;18.92;;
1220;SDS011;600;48.044;7.878;2022-12-18T04:36:39;32.05;;;18.75;;
1220;SDS011;600;48.044;7.878;2022-12-18T04:39:06;31.63;;;18.48;;
1220;SDS011;600;48.044;7.878;2022-12-18T04:41:33;32.00;;;18.65;;
1220;SDS011;600;48.044;7.878;2022-12-18T04:44:00;33.58;;;18.70;;
1220;SDS011;600;48.044;7.878;2022-12-18T04:46:26;29.45;;;17.05;;
1220;SDS011;600;48.044;7.878;2022-12-18T04:48:53;28.92;;;17.42;;
1220;SDS011;600;48.044;7.878;2022-12-18T04:51:20;33.28;;;17.23;;
1220;SDS011;600;48.044;7.878;2022-12-18T04:53:48;28.48;;;16.17;;
1220;SDS011;600;48.044;7.878;2022-12-18T04:56:15;32.13;;;17.73;;
1220;SDS011;600;48.044;7.878;2022-12-18T04:58:43;29.10;;;17.20;;
1220;SDS011;600;48.044;7.878;2022-12-18T05:01:11;40.10;;;18.67;;
1220;SDS011;600;48.044;7.878;2022-12-18T05:03:38;32.35;;;18.55;;
1220;SDS011;600;48.044;7.878;2022-12-18T05:06:05;32.92;;;18.27;;
1220;SDS011;600;48.044;7.878;2022-12-18T05:08:33;31.42;;;18.17;;
1220;SDS011;600;48.044;7.878;2022-12-18T05:11:01;30.33;;;16.83;;
1220;SDS011;600;48.044;7.878;2022-12-18T05:13:29;27.23;;;15.63;;
1220;SDS011;600;48.044;7.878;2022-12-18T05:15:56;30.40;;;18.00;;
1220;SDS011;600;48.044;7.878;2022-12-18T05:18:23;33.92;;;18.55;;
1220;SDS011;600;48.044;7.878;2022-12-18T05:20:51;30.77;;;17.45;;
1220;SDS011;600;48.044;7.878;2022-12-18T05:23:18;30.30;;;17.58;;
1220;SDS011;600;48.044;7.878;2022-12-18T05:25:47;30.23;;;16.95;;
1220;SDS011;600;48.044;7.878;2022-12-18T05:28:17;30.83;;;17.42;;
1220;SDS011;600;48.044;7.878;2022-12-18T05:30:47;31.40;;;17.80;;
1220;SDS011;600;48.044;7.878;2022-12-18T05:33:15;30.33;;;17.13;;
1220;SDS011;600;48.044;7.878;2022-12-18T05:35:42;33.97;;;18.05;;
1220;SDS011;600;48.044;7.878;2022-12-18T05:38:09;33.10;;;17.38;;
1220;SDS011;600;48.044;7.878;2022-12-18T05:40:36;33.17;;;17.45;;
1220;SDS011;600;48.044;7.878;2022-12-18T05:43:02;33.92;;;19.05;;
1220;SDS011;600;48.044;7.878;2022-12-18T05:45:32;34.47;;;18.55;;
1220;SDS011;600;48.044;7.878;2022-12-18T05:47:59;34.72;;;19.63;;
1220;SDS011;600;48.044;7.878;2022-12-18T05:50:26;34.15;;;16.67;;
1220;SDS011;600;48.044;7.878;2022-12-18T05:52:53;33.28;;;17.33;;
1220;SDS011;600;48.044;7.878;2022-12-18T05:55:19;33.03;;;17.83;;
1220;SDS011;600;48.044;7.878;2022-12-18T05:57:46;30.35;;;17.42;;
1220;SDS011;600;48.044;7.878;2022-12-18T06:00:13;27.45;;;16.02;;
1220;SDS011;600;48.044;7.878;2022-12-18T06:02:42;33.45;;;17.58;;
1220;SDS011;600;48.044;7.878;2022-12-18T06:05:12;28.50;;;17.52;;
1220;SDS011;600;48.044;7.878;2022-12-18T06:07:39;34.42;;;17.42;;
1220;SDS011;600;48.044;7.878;2022-12-18T06:10:06;36.88;;;19.88;;
1220;SDS011;600;48.044;7.878;2022-12-18T06:12:33;34.88;;;17.65;;
1220;SDS011;600;48.044;7.878;2022-12-18T06:15:00;33.67;;;17.98;;
1220;SDS011;600;48.044;7.878;2022-12-18T06:17:27;29.80;;;17.67;;
1220;SDS011;600;48.044;7.878;2022-12-18T06:19:56;33.80;;;18.73;;
1220;SDS011;600;48.044;7.878;2022-12-18T06:22:23;30.73;;;17.70;;
1220;SDS011;600;48.044;7.878;2022-12-18T06:24:50;31.75;;;17.95;;
1220;SDS011;600;48.044;7.878;2022-12-18T06:27:16;36.80;;;20.63;;
1220;SDS011;600;48.044;7.878;2022-12-18T06:29:43;33.80;;;19.30;;
1220;SDS011;600;48.044;7.878;2022-12-18T06:32:10;36.17;;;20.85;;
1220;SDS011;600;48.044;7.878;2022-12-18T06:34:37;47.03;;;21.02;;
1220;SDS011;600;48.044;7.878;2022-12-18T06:40:27;41.13;;;21.77;;
1220;SDS011;600;48.044;7.878;2022-12-18T06:42:53;30.70;;;18.42;;
1220;SDS011;600;48.044;7.878;2022-12-18T06:45:20;32.13;;;17.20;;
1220;SDS011;600;48.044;7.878;2022-12-18T06:47:47;28.40;;;17.10;;
1220;SDS011;600;48.044;7.878;2022-12-18T06:50:14;36.50;;;20.63;;
1220;SDS011;600;48.044;7.878;2022-12-18T06:52:40;29.23;;;16.60;;
1220;SDS011;600;48.044;7.878;2022-12-18T06:55:09;29.48;;;16.70;;
1220;SDS011;600;48.044;7.878;2022-12-18T06:57:38;31.75;;;16.80;;
1220;SDS011;600;48.044;7.878;2022-12-18T07:00:05;25.77;;;16.35;;
1220;SDS011;600;48.044;7.878;2022-12-18T07:02:33;23.77;;;14.43;;
1220;SDS011;600;48.044;7.878;2022-12-18T07:05:00;26.48;;;16.70;;
1220;SDS011;600;48.044;7.878;2022-12-18T07:07:27;20.05;;;13.50;;
1220;SDS011;600;48.044;7.878;2022-12-18T07:09:54;21.30;;;13.55;;
1220;SDS011;600;48.044;7.878;2022-12-18T07:12:20;20.90;;;13.75;;
1220;SDS011;600;48.044;7.878;2022-12-18T07:14:48;26.58;;;15.13;;
1220;SDS011;600;48.044;7.878;2022-12-18T07:17:15;28.90;;;16.38;;
1220;SDS011;600;48.044;7.878;2022-12-18T07:19:42;30.42;;;17.10;;
1220;SDS011;600;48.044;7.878;2022-12-18T07:22:08;31.40;;;17.10;;
1220;SDS011;600;48.044;7.878;2022-12-18T07:24:35;30.13;;;17.77;;
1220;SDS011;600;48.044;7.878;2022-12-18T07:27:02;28.52;;;17.92;;
1220;SDS011;600;48.044;7.878;2022-12-18T07:29:29;30.55;;;16.95;;
1220;SDS011;600;48.044;7.878;2022-12-18T07:31:57;31.25;;;18.10;;
1220;SDS011;600;48.044;7.878;2022-12-18T07:34:24;30.85;;;18.00;;
1220;SDS011;600;48.044;7.878;2022-12-18T07:36:50;31.67;;;18.00;;
1220;SDS011;600;48.044;7.878;2022-12-18T07:39:17;31.30;;;17.40;;
1220;SDS011;600;48.044;7.878;2022-12-18T07:41:44;27.08;;;17.15;;
1220;SDS011;600;48.044;7.878;2022-12-18T07:44:31;37.90;;;20.08;;
1220;SDS011;600;48.044;7.878;2022-12-18T07:46:59;32.63;;;18.35;;
1220;SDS011;600;48.044;7.878;2022-12-18T07:49:27;36.47;;;19.60;;
1220;SDS011;600;48.044;7.878;2022-12-18T07:51:53;36.50;;;20.60;;
1220;SDS011;600;48.044;7.878;2022-12-18T07:54:21;37.75;;;20.02;;
1220;SDS011;600;48.044;7.878;2022-12-18T07:56:47;32.00;;;18.65;;
1220;SDS011;600;48.044;7.878;2022-12-18T07:59:15;31.05;;;17.48;;
1220;SDS011;600;48.044;7.878;2022-12-18T08:01:42;28.88;;;17.67;;
1220;SDS011;600;48.044;7.878;2022-12-18T08:07:32;36.42;;;24.90;;
1220;SDS011;600;48.044;7.878;2022-12-18T08:09:59;30.15;;;18.30;;
1220;SDS011;600;48.044;7.878;2022-12-18T08:12:26;28.10;;;18.27;;
1220;SDS011;600;48.044;7.878;2022-12-18T08:14:52;27.45;;;17.30;;
1220;SDS011;600;48.044;7.878;2022-12-18T08:17:19;30.45;;;18.92;;
1220;SDS011;600;48.044;7.878;2022-12-18T08:19:46;29.83;;;18.45;;
1220;SDS011;600;48.044;7.878;2022-12-18T08:22:13;32.92;;;19.02;;
1220;SDS011;600;48.044;7.878;2022-12-18T08:24:41;30.60;;;18.50;;
1220;SDS011;600;48.044;7.878;2022-12-18T08:27:07;35.20;;;18.52;;
1220;SDS011;600;48.044;7.878;2022-12-18T08:29:34;31.52;;;19.20;;
1220;SDS011;600;48.044;7.878;2022-12-18T08:32:01;31.25;;;17.73;;
1220;SDS011;600;48.044;7.878;2022-12-18T08:34:28;32.50;;;18.95;;
1220;SDS011;600;48.044;7.878;2022-12-18T08:36:55;31.42;;;19.17;;
1220;SDS011;600;48.044;7.878;2022-12-18T08:39:21;30.92;;;17.35;;
1220;SDS011;600;48.044;7.878;2022-12-18T08:41:49;29.52;;;18.20;;
1220;SDS011;600;48.044;7.878;2022-12-18T08:44:30;33.15;;;18.23;;
1220;SDS011;600;48.044;7.878;2022-12-18T08:47:06;25.80;;;16.10;;
1220;SDS011;600;48.044;7.878;2022-12-18T08:49:37;30.60;;;16.70;;
1220;SDS011;600;48.044;7.878;2022-12-18T08:52:07;29.25;;;17.60;;
1220;SDS011;600;48.044;7.878;2022-12-18T08:54:34;29.20;;;17.73;;
1220;SDS011;600;48.044;7.878;2022-12-18T08:57:03;27.50;;;18.83;;
1220;SDS011;600;48.044;7.878;2022-12-18T08:59:29;30.52;;;18.60;;
1220;SDS011;600;48.044;7.878;2022-12-18T09:01:56;34.13;;;19.40;;
1220;SDS011;600;48.044;7.878;2022-12-18T09:04:23;29.88;;;18.38;;
1220;SDS011;600;48.044;7.878;2022-12-18T09:06:49;31.65;;;17.73;;
1220;SDS011;600;48.044;7.878;2022-12-18T09:09:16;34.28;;;20.60;;
1220;SDS011;600;48.044;7.878;2022-12-18T09:11:43;30.52;;;19.13;;
1220;SDS011;600;48.044;7.878;2022-12-18T09:17:33;37.38;;;22.25;;
1220;SDS011;600;48.044;7.878;2022-12-18T09:19:59;30.70;;;19.33;;
1220;SDS011;600;48.044;7.878;2022-12-18T09:22:26;36.83;;;22.05;;
1220;SDS011;600;48.044;7.878;2022-12-18T09:24:53;36.35;;;21.48;;
1220;SDS011;600;48.044;7.878;2022-12-18T09:30:43;34.60;;;21.65;;
1220;SDS011;600;48.044;7.878;2022-12-18T09:33:12;32.42;;;21.15;;
1220;SDS011;600;48.044;7.878;2022-12-18T09:35:40;32.10;;;20.60;;
1220;SDS011;600;48.044;7.878;2022-12-18T09:38:08;37.83;;;21.73;;
1220;SDS011;600;48.044;7.878;2022-12-18T09:40:39;33.17;;;22.42;;
1220;SDS011;600;48.044;7.878;2022-12-18T09:43:11;37.08;;;22.92;;
1220;SDS011;600;48.044;7.878;2022-12-18T09:45:43;33.50;;;21.00;;
1220;SDS011;600;48.044;7.878;2022-12-18T09:48:15;31.77;;;19.60;;
1220;SDS011;600;48.044;7.878;2022-12-18T09:50:47;32.17;;;18.83;;
1220;SDS011;600;48.044;7.878;2022-12-18T09:53:27;33.25;;;19.70;;
1220;SDS011;600;48.044;7.878;2022-12-18T09:55:58;33.92;;;20.98;;
1220;SDS011;600;48.044;7.878;2022-12-18T09:58:28;36.22;;;20.50;;
1220;SDS011;600;48.044;7.878;2022-12-18T10:00:59;31.25;;;20.92;;
1220;SDS011;600;48.044;7.878;2022-12-18T10:03:27;34.28;;;19.42;;
1220;SDS011;600;48.044;7.878;2022-12-18T10:09:19;33.55;;;21.70;;
1220;SDS011;600;48.044;7.878;2022-12-18T10:11:53;32.88;;;20.88;;
1220;SDS011;600;48.044;7.878;2022-12-18T10:14:27;32.95;;;21.38;;
1220;SDS011;600;48.044;7.878;2022-12-18T10:17:03;34.33;;;21.42;;
1220;SDS011;600;48.044;7.878;2022-12-18T10:19:42;30.65;;;20.85;;
1220;SDS011;600;48.044;7.878;2022-12-18T10:22:17;30.15;;;20.02;;
1220;SDS011;600;48.044;7.878;2022-12-18T10:24:50;29.33;;;18.90;;
1220;SDS011;600;48.044;7.878;2022-12-18T10:30:00;32.63;;;21.08;;
1220;SDS011;600;48.044;7.878;2022-12-18T10:35:08;36.00;;;22.33;;
1220;SDS011;600;48.044;7.878;2022-12-18T10:40:16;32.50;;;21.63;;
1220;SDS011;600;48.044;7.878;2022-12-18T10:42:43;27.60;;;18.48;;
1220;SDS011;600;48.044;7.878;2022-12-18T10:47:34;23.40;;;17.80;;
1220;SDS011;600;48.044;7.878;2022-12-18T10:50:01;31.92;;;19.67;;
1220;SDS011;600;48.044;7.878;2022-12-18T10:52:28;25.25;;;17.60;;
1220;SDS011;600;48.044;7.878;2022-12-18T10:54:57;25.95;;;17.35;;
1220;SDS011;600;48.044;7.878;2022-12-18T10:57:30;25.17;;;18.48;;
1220;SDS011;600;48.044;7.878;2022-12-18T11:00:00;29.00;;;18.70;;
1220;SDS011;600;48.044;7.878;2022-12-18T11:02:47;28.15;;;19.48;;
1220;SDS011;600;48.044;7.878;2022-12-18T11:05:28;27.10;;;18.58;;
1220;SDS011;600;48.044;7.878;2022-12-18T11:07:56;29.40;;;19.35;;
1220;SDS011;600;48.044;7.878;2022-12-18T11:10:26;30.23;;;20.30;;
1220;SDS011;600;48.044;7.878;2022-12-18T11:12:56;31.13;;;20.67;;
1220;SDS011;600;48.044;7.878;2022-12-18T11:15:39;29.35;;;19.65;;
1220;SDS011;600;48.044;7.878;2022-12-18T11:18:14;33.25;;;21.58;;
1220;SDS011;600;48.044;7.878;2022-12-18T11:20:44;28.98;;;20.20;;
1220;SDS011;600;48.044;7.878;2022-12-18T11:23:17;29.13;;;18.67;;
1220;SDS011;600;48.044;7.878;2022-12-18T11:25:50;30.38;;;21.17;;
1220;SDS011;600;48.044;7.878;2022-12-18T11:28:27;28.40;;;19.88;;
1220;SDS011;600;48.044;7.878;2022-12-18T11:31:21;25.40;;;18.67;;
1220;SDS011;600;48.044;7.878;2022-12-18T11:33:54;31.08;;;19.85;;
1220;SDS011;600;48.044;7.878;2022-12-18T11:36:24;28.48;;;18.65;;
1220;SDS011;600;48.044;7.878;2022-12-18T11:38:55;27.65;;;19.25;;
1220;SDS011;600;48.044;7.878;2022-12-18T11:41:25;35.78;;;21.20;;
1220;SDS011;600;48.044;7.878;2022-12-18T11:44:11;32.15;;;20.10;;
1220;SDS011;600;48.044;7.878;2022-12-18T11:46:43;34.40;;;21.95;;
1220;SDS011;600;48.044;7.878;2022-12-18T11:49:18;31.98;;;21.42;;
1220;SDS011;600;48.044;7.878;2022-12-18T11:51:49;31.70;;;20.73;;
1220;SDS011;600;48.044;7.878;2022-12-18T11:54:19;29.13;;;19.55;;
1220;SDS011;600;48.044;7.878;2022-12-18T11:56:47;29.17;;;20.83;;
1220;SDS011;600;48.044;7.878;2022-12-18T11:59:18;31.13;;;21.58;;
1220;SDS011;600;48.044;7.878;2022-12-18T12:01:56;33.10;;;22.52;;
1220;SDS011;600;48.044;7.878;2022-12-18T12:04:40;35.42;;;21.98;;
1220;SDS011;600;48.044;7.878;2022-12-18T12:07:18;31.65;;;20.98;;
1220;SDS011;600;48.044;7.878;2022-12-18T12:09:57;30.00;;;21.02;;
1220;SDS011;600;48.044;7.878;2022-12-18T12:12:35;32.08;;;20.48;;
1220;SDS011;600;48.044;7.878;2022-12-18T12:15:13;33.60;;;20.98;;
1220;SDS011;600;48.044;7.878;2022-12-18T12:17:49;28.45;;;20.15;;
1220;SDS011;600;48.044;7.878;2022-12-18T12:20:25;32.08;;;19.92;;
1220;SDS011;600;48.044;7.878;2022-12-18T12:22:59;32.92;;;20.05;;
1220;SDS011;600;48.044;7.878;2022-12-18T12:25:33;28.52;;;20.40;;
1220;SDS011;600;48.044;7.878;2022-12-18T12:28:10;33.22;;;21.30;;
1220;SDS011;600;48.044;7.878;2022-12-18T12:30:48;26.88;;;19.52;;
1220;SDS011;600;48.044;7.878;2022-12-18T12:33:25;32.22;;;21.88;;
1220;SDS011;600;48.044;7.878;2022-12-18T12:36:02;34.25;;;23.40;;
1220;SDS011;600;48.044;7.878;2022-12-18T12:38:39;31.50;;;21.50;;
1220;SDS011;600;48.044;7.878;2022-12-18T12:41:12;29.42;;;21.02;;
1220;SDS011;600;48.044;7.878;2022-12-18T12:43:57;32.90;;;22.13;;
1220;SDS011;600;48.044;7.878;2022-12-18T12:46:26;31.40;;;22.15;;
1220;SDS011;600;48.044;7.878;2022-12-18T12:48:53;35.15;;;21.65;;
1220;SDS011;600;48.044;7.878;2022-12-18T12:51:23;30.65;;;23.45;;
1220;SDS011;600;48.044;7.878;2022-12-18T12:53:52;38.15;;;23.33;;
1220;SDS011;600;48.044;7.878;2022-12-18T12:56:20;31.02;;;23.02;;
1220;SDS011;600;48.044;7.878;2022-12-18T12:58:51;33.72;;;22.67;;
1220;SDS011;600;48.044;7.878;2022-12-18T13:01:25;29.67;;;20.92;;
1220;SDS011;600;48.044;7.878;2022-12-18T13:04:02;28.30;;;21.00;;
1220;SDS011;600;48.044;7.878;2022-12-18T13:06:40;32.15;;;22.90;;
1220;SDS011;600;48.044;7.878;2022-12-18T13:09:11;34.40;;;22.35;;
1220;SDS011;600;48.044;7.878;2022-12-18T13:11:39;35.17;;;23.23;;
1220;SDS011;600;48.044;7.878;2022-12-18T13:14:27;34.67;;;22.17;;
1220;SDS011;600;48.044;7.878;2022-12-18T13:17:15;30.95;;;21.55;;
1220;SDS011;600;48.044;7.878;2022-12-18T13:19:50;34.47;;;27.88;;
1220;SDS011;600;48.044;7.878;2022-12-18T13:22:23;30.17;;;23.10;;
1220;SDS011;600;48.044;7.878;2022-12-18T13:24:50;27.77;;;21.45;;
1220;SDS011;600;48.044;7.878;2022-12-18T13:27:45;31.58;;;22.58;;
1220;SDS011;600;48.044;7.878;2022-12-18T13:36:16;29.23;;;21.35;;
1220;SDS011;600;48.044;7.878;2022-12-18T13:41:51;30.50;;;22.63;;
1220;SDS011;600;48.044;7.878;2022-12-18T13:44:23;32.22;;;23.00;;
1220;SDS011;600;48.044;7.878;2022-12-18T13:46:54;35.10;;;22.60;;
1220;SDS011;600;48.044;7.878;2022-12-18T13:49:22;36.30;;;25.17;;
1220;SDS011;600;48.044;7.878;2022-12-18T13:51:52;32.90;;;23.25;;
1220;SDS011;600;48.044;7.878;2022-12-18T13:54:21;35.45;;;23.65;;
1220;SDS011;600;48.044;7.878;2022-12-18T13:56:51;35.92;;;23.50;;
1220;SDS011;600;48.044;7.878;2022-12-18T13:59:18;29.95;;;21.45;;
1220;SDS011;600;48.044;7.878;2022-12-18T14:01:48;34.70;;;23.88;;
1220;SDS011;600;48.044;7.878;2022-12-18T14:04:19;29.85;;;22.15;;
1220;SDS011;600;48.044;7.878;2022-12-18T14:06:47;26.85;;;20.52;;
1220;SDS011;600;48.044;7.878;2022-12-18T14:09:16;28.77;;;21.92;;
1220;SDS011;600;48.044;7.878;2022-12-18T14:11:48;28.90;;;21.15;;
1220;SDS011;600;48.044;7.878;2022-12-18T14:14:16;27.85;;;20.30;;
1220;SDS011;600;48.044;7.878;2022-12-18T14:16:44;31.75;;;21.60;;
1220;SDS011;600;48.044;7.878;2022-12-18T14:19:13;32.28;;;22.85;;
1220;SDS011;600;48.044;7.878;2022-12-18T14:21:45;28.42;;;21.50;;
1220;SDS011;600;48.044;7.878;2022-12-18T14:24:13;32.65;;;24.55;;
1220;SDS011;600;48.044;7.878;2022-12-18T14:26:42;32.17;;;24.45;;
1220;SDS011;600;48.044;7.878;2022-12-18T14:29:21;31.63;;;23.02;;
1220;SDS011;600;48.044;7.878;2022-12-18T14:32:06;31.42;;;22.13;;
1220;SDS011;600;48.044;7.878;2022-12-18T14:34:35;30.45;;;21.83;;
1220;SDS011;600;48.044;7.878;2022-12-18T14:37:02;29.38;;;20.98;;
1220;SDS011;600;48.044;7.878;2022-12-18T14:39:29;29.27;;;20.58;;
1220;SDS011;600;48.044;7.878;2022-12-18T14:41:56;25.92;;;20.23;;
1220;SDS011;600;48.044;7.878;2022-12-18T14:44:24;33.60;;;22.80;;
1220;SDS011;600;48.044;7.878;2022-12-18T14:46:51;29.77;;;22.73;;
1220;SDS011;600;48.044;7.878;2022-12-18T14:49:19;26.40;;;21.25;;
1220;SDS011;600;48.044;7.878;2022-12-18T14:51:49;34.88;;;23.02;;
1220;SDS011;600;48.044;7.878;2022-12-18T14:54:18;30.58;;;21.80;;
1220;SDS011;600;48.044;7.878;2022-12-18T14:56:46;25.63;;;20.10;;
1220;SDS011;600;48.044;7.878;2022-12-18T14:59:15;28.23;;;20.42;;
1220;SDS011;600;48.044;7.878;2022-12-18T15:01:46;29.75;;;21.48;;
1220;SDS011;600;48.044;7.878;2022-12-18T15:04:23;27.83;;;20.88;;
1220;SDS011;600;48.044;7.878;2022-12-18T15:07:02;30.92;;;21.33;;
1220;SDS011;600;48.044;7.878;2022-12-18T15:09:40;33.50;;;22.95;;
1220;SDS011;600;48.044;7.878;2022-12-18T15:12:21;33.25;;;22.48;;
1220;SDS011;600;48.044;7.878;2022-12-18T15:14:52;30.20;;;22.52;;
1220;SDS011;600;48.044;7.878;2022-12-18T15:17:20;32.85;;;23.05;;
1220;SDS011;600;48.044;7.878;2022-12-18T15:19:49;31.27;;;22.85;;
1220;SDS011;600;48.044;7.878;2022-12-18T15:22:19;30.13;;;23.42;;
1220;SDS011;600;48.044;7.878;2022-12-18T15:24:52;35.15;;;23.92;;
1220;SDS011;600;48.044;7.878;2022-12-18T15:27:26;37.50;;;26.27;;
1220;SDS011;600;48.044;7.878;2022-12-18T15:29:59;32.88;;;23.23;;
1220;SDS011;600;48.044;7.878;2022-12-18T15:32:42;37.80;;;24.85;;
1220;SDS011;600;48.044;7.878;2022-12-18T15:35:11;36.63;;;23.48;;
1220;SDS011;600;48.044;7.878;2022-12-18T15:37:42;34.83;;;24.02;;
1220;SDS011;600;48.044;7.878;2022-12-18T15:40:12;36.30;;;26.38;;
1220;SDS011;600;48.044;7.878;2022-12-18T15:42:39;34.67;;;25.02;;
1220;SDS011;600;48.044;7.878;2022-12-18T15:45:24;37.67;;;27.92;;
1220;SDS011;600;48.044;7.878;2022-12-18T15:51:15;37.78;;;25.80;;
1220;SDS011;600;48.044;7.878;2022-12-18T15:53:45;34.90;;;25.77;;
1220;SDS011;600;48.044;7.878;2022-12-18T15:56:13;35.95;;;23.75;;
1220;SDS011;600;48.044;7.878;2022-12-18T16:02:20;36.38;;;25.77;;
1220;SDS011;600;48.044;7.878;2022-12-18T16:04:48;24.70;;;18.10;;
1220;SDS011;600;48.044;7.878;2022-12-18T16:07:17;21.70;;;16.20;;